Time;durP1;ratioP1;P1;durP2;ratioP2;P2;SDS_P1;SDS_P2;PMS_P1;PMS_P2;Temp;Humidity;BMP_temperature;BMP_pressure;BME280_temperature;BME280_humidity;BME280_pressure;Samples;Min_cycle;Max_cycle;Signal;HPM_P1;HPM_P2
2023/12/25 00:00:15;;;;;;;4.13;3.30;;;8.90;99.90;;;;;;6150581;23;20585;-85
2023/12/25 00:03:05;;;;;;;3.50;3.20;;;8.90;99.90;;;;;;6140435;23;20184;-84
2023/12/25 00:05:34;;;;;;;3.57;3.20;;;8.90;99.90;;;;;;6152369;23;20668;-82
2023/12/25 00:08:02;;;;;;;3.77;3.37;;;9.00;99.90;;;;;;6154379;23;20175;-81
2023/12/25 00:10:32;;;;;;;3.57;3.00;;;9.00;99.90;;;;;;6153211;23;20658;-85
2023/12/25 00:13:00;;;;;;;4.00;3.60;;;9.10;99.90;;;;;;6157221;23;20171;-84
2023/12/25 00:15:29;;;;;;;3.20;2.90;;;9.20;99.90;;;;;;6155238;23;20164;-86
2023/12/25 00:17:58;;;;;;;3.53;3.23;;;9.20;99.90;;;;;;6159585;23;20180;-86
2023/12/25 00:20:28;;;;;;;3.33;3.03;;;9.30;99.90;;;;;;6165330;23;20164;-80
2023/12/25 00:22:57;;;;;;;3.40;3.10;;;9.30;99.90;;;;;;6157445;23;20156;-82
2023/12/25 00:25:26;;;;;;;3.00;2.80;;;9.40;99.90;;;;;;6156069;23;20182;-88
2023/12/25 00:28:02;;;;;;;3.50;3.20;;;9.40;99.90;;;;;;6145280;23;20234;-89
2023/12/25 00:30:31;;;;;;;3.07;2.77;;;9.50;99.90;;;;;;6155356;23;20156;-87
2023/12/25 00:33:01;;;;;;;3.57;3.27;;;9.50;99.90;;;;;;6144177;23;20168;-84
2023/12/25 00:35:31;;;;;;;4.40;2.93;;;9.60;99.90;;;;;;6153008;23;20239;-83
2023/12/25 00:38:00;;;;;;;3.23;3.00;;;9.60;99.90;;;;;;6157444;23;20174;-85
2023/12/25 00:40:31;;;;;;;3.50;3.20;;;9.60;99.90;;;;;;6159387;23;20160;-84
2023/12/25 00:43:00;;;;;;;3.53;3.23;;;9.60;99.90;;;;;;6156286;23;20171;-85
2023/12/25 00:45:29;;;;;;;3.80;3.50;;;9.70;99.90;;;;;;6151877;23;20282;-84
2023/12/25 00:47:57;;;;;;;4.27;3.23;;;9.80;99.90;;;;;;6151824;23;20485;-86
2023/12/25 00:50:31;;;;;;;3.60;3.30;;;9.80;99.90;;;;;;6151613;23;20184;-83
2023/12/25 00:53:02;;;;;;;3.87;3.57;;;9.80;99.90;;;;;;6158369;23;20140;-84
2023/12/25 00:55:32;;;;;;;4.17;3.77;;;9.90;99.90;;;;;;6159477;23;20174;-84
2023/12/25 00:58:04;;;;;;;3.70;3.40;;;9.80;99.90;;;;;;6152592;23;20159;-87
2023/12/25 01:00:36;;;;;;;3.60;3.30;;;10.00;99.90;;;;;;6151683;23;20587;-83
2023/12/25 01:03:05;;;;;;;3.93;3.53;;;9.90;99.90;;;;;;6152071;23;20167;-87
2023/12/25 01:05:36;;;;;;;4.20;3.90;;;9.90;99.90;;;;;;6155736;23;20304;-84
2023/12/25 01:08:08;;;;;;;4.27;3.70;;;9.90;99.90;;;;;;6160369;23;20195;-85
2023/12/25 01:10:37;;;;;;;3.73;3.43;;;9.90;99.90;;;;;;6176110;23;20159;-87
2023/12/25 01:13:05;;;;;;;4.60;3.80;;;9.90;99.90;;;;;;6178572;23;20167;-84
2023/12/25 01:15:35;;;;;;;4.47;3.83;;;9.90;99.90;;;;;;6177225;23;20156;-83
2023/12/25 01:18:04;;;;;;;4.53;4.10;;;9.90;99.90;;;;;;6171963;23;20376;-89
2023/12/25 01:20:36;;;;;;;4.83;4.37;;;9.70;99.90;;;;;;6140117;23;20179;-86
2023/12/25 01:23:04;;;;;;;5.60;5.10;;;9.70;99.90;;;;;;6155569;23;20661;-85
2023/12/25 01:25:33;;;;;;;5.00;4.47;;;9.80;99.90;;;;;;6159275;23;20187;-85
2023/12/25 01:28:03;;;;;;;5.97;5.33;;;9.70;99.90;;;;;;6164664;23;20199;-84
2023/12/25 01:30:32;;;;;;;5.37;4.87;;;9.70;99.90;;;;;;6167067;23;20164;-88
2023/12/25 01:33:01;;;;;;;5.80;5.30;;;9.70;99.90;;;;;;6164775;23;20262;-84
2023/12/25 01:35:30;;;;;;;5.60;5.10;;;9.70;99.90;;;;;;6115535;23;20175;-82
2023/12/25 01:38:00;;;;;;;5.70;5.20;;;9.70;99.90;;;;;;6159042;23;20167;-83
2023/12/25 01:40:29;;;;;;;5.27;4.77;;;9.70;99.90;;;;;;6168773;23;20163;-83
2023/12/25 01:42:58;;;;;;;5.50;4.03;;;9.50;99.90;;;;;;6157093;23;20230;-81
2023/12/25 01:45:26;;;;;;;5.43;4.87;;;9.50;99.90;;;;;;6117289;23;20565;-83
2023/12/25 01:47:55;;;;;;;4.90;3.73;;;9.60;99.90;;;;;;6142168;23;20171;-84
2023/12/25 01:50:24;;;;;;;3.50;3.23;;;9.60;99.90;;;;;;6152741;23;20403;-82
2023/12/25 01:52:53;;;;;;;3.40;3.10;;;9.40;99.90;;;;;;6156376;23;20172;-82
2023/12/25 01:55:23;;;;;;;2.87;2.67;;;9.40;99.90;;;;;;6149538;23;20183;-83
2023/12/25 01:57:52;;;;;;;2.30;2.20;;;9.40;99.90;;;;;;6151370;23;20707;-84
2023/12/25 02:00:22;;;;;;;2.53;2.33;;;9.40;99.90;;;;;;6154367;23;20191;-86
2023/12/25 02:02:52;;;;;;;2.40;2.20;;;9.50;99.90;;;;;;6150698;23;20168;-84
2023/12/25 02:05:21;;;;;;;2.60;2.00;;;9.50;99.90;;;;;;6156817;23;20187;-81
2023/12/25 02:07:51;;;;;;;1.70;1.60;;;9.40;99.90;;;;;;6158654;23;20170;-84
2023/12/25 02:10:28;;;;;;;2.93;1.90;;;9.50;99.90;;;;;;6162905;23;20175;-85
2023/12/25 02:12:57;;;;;;;1.70;1.60;;;9.50;99.90;;;;;;6174063;23;20241;-88
2023/12/25 02:15:27;;;;;;;1.93;1.60;;;9.50;99.90;;;;;;6177065;23;20155;-83
2023/12/25 02:18:00;;;;;;;1.47;1.40;;;9.50;99.90;;;;;;6167005;23;20480;-84
2023/12/25 02:20:30;;;;;;;1.23;1.13;;;9.40;99.90;;;;;;6152590;23;20456;-83
2023/12/25 02:23:00;;;;;;;1.73;1.30;;;9.40;99.90;;;;;;6152790;23;20160;-87
2023/12/25 02:25:34;;;;;;;1.00;0.90;;;9.40;99.90;;;;;;6139577;23;20386;-86
2023/12/25 02:28:06;;;;;;;2.07;1.07;;;9.30;99.90;;;;;;6118835;23;20191;-89
2023/12/25 02:30:35;;;;;;;2.50;1.37;;;9.20;99.90;;;;;;6154056;23;20592;-84
2023/12/25 02:33:05;;;;;;;0.83;0.80;;;9.20;99.90;;;;;;6121082;23;20552;-88
2023/12/25 02:35:34;;;;;;;0.90;0.90;;;9.00;99.90;;;;;;6154009;23;20178;-86
2023/12/25 02:38:03;;;;;;;1.07;1.00;;;9.00;99.90;;;;;;6155168;23;20160;-84
2023/12/25 02:40:35;;;;;;;1.10;1.10;;;9.00;99.90;;;;;;6116925;23;20176;-87
2023/12/25 02:43:06;;;;;;;1.30;1.20;;;9.00;99.90;;;;;;6166062;23;20207;-85
2023/12/25 02:45:35;;;;;;;2.27;2.07;;;9.00;99.90;;;;;;6173348;23;20541;-85
2023/12/25 02:48:04;;;;;;;3.23;1.80;;;9.10;99.90;;;;;;6166219;23;20168;-83
2023/12/25 02:50:36;;;;;;;1.57;1.47;;;9.20;99.90;;;;;;6174673;23;20152;-84
2023/12/25 02:53:05;;;;;;;1.80;1.70;;;9.30;99.90;;;;;;6174978;23;20175;-83
2023/12/25 02:55:37;;;;;;;1.93;1.83;;;9.30;99.90;;;;;;6176166;23;20148;-84
2023/12/25 02:58:07;;;;;;;2.53;1.83;;;9.40;99.90;;;;;;6179021;23;20143;-84
2023/12/25 03:00:36;;;;;;;2.53;1.90;;;9.40;99.90;;;;;;6177583;23;20147;-84
2023/12/25 03:03:05;;;;;;;2.10;1.87;;;9.40;99.90;;;;;;6178511;23;20144;-84
2023/12/25 03:05:34;;;;;;;1.70;1.57;;;9.30;99.90;;;;;;6178878;23;20215;-81
2023/12/25 03:08:02;;;;;;;1.97;1.50;;;9.30;99.90;;;;;;6176063;23;20164;-81
2023/12/25 03:10:31;;;;;;;2.03;1.53;;;9.20;99.90;;;;;;6173836;23;20158;-85
2023/12/25 03:13:01;;;;;;;3.73;1.63;;;9.20;99.90;;;;;;6169202;23;20163;-85
2023/12/25 03:15:33;;;;;;;1.50;1.37;;;9.20;99.90;;;;;;6177124;23;20179;-83
2023/12/25 03:18:01;;;;;;;2.17;1.23;;;9.10;99.90;;;;;;6179225;23;20472;-83
2023/12/25 03:20:31;;;;;;;1.10;1.00;;;9.10;99.90;;;;;;6176400;23;20144;-80
2023/12/25 03:22:59;;;;;;;1.03;0.97;;;9.00;99.90;;;;;;6178964;23;20173;-81
2023/12/25 03:25:28;;;;;;;1.50;1.20;;;9.00;99.90;;;;;;6169165;23;20206;-84
2023/12/25 03:27:58;;;;;;;1.20;0.77;;;9.00;99.90;;;;;;6176014;23;20242;-83
2023/12/25 03:30:27;;;;;;;1.50;1.10;;;9.00;99.90;;;;;;6122741;23;20195;-85
2023/12/25 03:32:57;;;;;;;1.43;0.83;;;9.00;99.90;;;;;;6118522;23;20264;-84
2023/12/25 03:35:26;;;;;;;2.20;1.00;;;9.00;99.90;;;;;;6152002;23;20219;-82
2023/12/25 03:37:55;;;;;;;1.03;0.93;;;9.00;99.90;;;;;;6147890;23;20160;-85
2023/12/25 03:40:24;;;;;;;1.50;0.90;;;8.90;99.90;;;;;;6152385;23;20175;-87
2023/12/25 03:42:54;;;;;;;1.80;1.00;;;8.90;99.90;;;;;;6172984;23;20496;-84
2023/12/25 03:45:23;;;;;;;1.33;0.93;;;8.80;99.90;;;;;;6120088;23;20424;-81
2023/12/25 03:47:52;;;;;;;1.10;1.00;;;8.90;99.90;;;;;;6140910;23;20172;-87
2023/12/25 03:50:23;;;;;;;2.67;1.07;;;9.00;99.90;;;;;;6151623;23;20184;-83
2023/12/25 03:52:52;;;;;;;0.90;0.80;;;9.00;99.90;;;;;;6140238;23;20270;-85
2023/12/25 03:55:21;;;;;;;1.10;0.90;;;9.10;99.90;;;;;;6149621;23;20592;-81
2023/12/25 03:57:49;;;;;;;3.23;1.00;;;9.20;99.90;;;;;;6136996;23;20176;-79
2023/12/25 04:00:20;;;;;;;1.50;1.03;;;9.10;99.90;;;;;;6147084;23;20164;-84
2023/12/25 04:02:48;;;;;;;3.13;1.10;;;9.00;99.90;;;;;;6148920;23;20174;-83
2023/12/25 04:05:17;;;;;;;4.63;1.00;;;9.10;99.90;;;;;;6151588;23;20179;-80
2023/12/25 04:07:47;;;;;;;1.33;1.00;;;9.00;99.90;;;;;;6152042;23;20192;-83
2023/12/25 04:10:16;;;;;;;1.10;1.00;;;9.00;99.90;;;;;;6148194;23;20172;-83
2023/12/25 04:12:45;;;;;;;2.33;1.10;;;9.00;99.90;;;;;;6146613;23;20275;-85
2023/12/25 04:15:13;;;;;;;1.10;1.00;;;8.90;99.90;;;;;;6149674;23;20175;-88
2023/12/25 04:17:42;;;;;;;1.97;1.20;;;8.90;99.90;;;;;;6147800;23;20359;-83
2023/12/25 04:20:12;;;;;;;3.27;1.20;;;8.90;99.90;;;;;;6147909;23;20160;-83
2023/12/25 04:22:41;;;;;;;1.57;0.90;;;8.80;99.90;;;;;;6138876;23;20167;-84
2023/12/25 04:25:11;;;;;;;1.17;1.07;;;8.80;99.90;;;;;;6153771;23;20277;-83
2023/12/25 04:27:44;;;;;;;3.10;1.20;;;8.70;99.90;;;;;;6150765;23;20194;-83
2023/12/25 04:30:13;;;;;;;1.40;1.10;;;8.70;99.90;;;;;;6155439;23;20160;-82
2023/12/25 04:32:42;;;;;;;2.67;1.23;;;8.70;99.90;;;;;;6148912;23;20215;-86
2023/12/25 04:35:11;;;;;;;1.70;1.10;;;8.70;99.90;;;;;;6148550;23;20475;-86
2023/12/25 04:37:39;;;;;;;1.20;1.10;;;8.70;99.90;;;;;;6147434;23;20167;-84
2023/12/25 04:40:12;;;;;;;2.20;1.33;;;8.60;99.90;;;;;;6149347;23;20250;-85
2023/12/25 04:42:41;;;;;;;1.63;1.33;;;8.60;99.90;;;;;;6148485;23;20159;-88
2023/12/25 04:45:10;;;;;;;2.03;1.10;;;8.70;99.90;;;;;;6145263;23;20211;-86
2023/12/25 04:47:39;;;;;;;2.37;1.07;;;8.70;99.90;;;;;;6149976;23;20202;-85
2023/12/25 04:50:09;;;;;;;2.60;1.33;;;8.70;99.90;;;;;;6148897;23;20168;-86
2023/12/25 04:52:37;;;;;;;2.37;1.43;;;8.60;99.90;;;;;;6148647;23;20171;-86
2023/12/25 04:55:06;;;;;;;2.30;1.23;;;8.60;99.90;;;;;;6150900;23;20563;-82
2023/12/25 04:57:36;;;;;;;1.37;1.27;;;8.50;99.90;;;;;;6148937;23;20242;-85
2023/12/25 05:00:07;;;;;;;3.23;1.30;;;8.50;99.90;;;;;;6149416;23;20183;-85
2023/12/25 05:02:35;;;;;;;3.20;1.20;;;8.50;99.90;;;;;;6149744;23;20197;-82
2023/12/25 05:05:04;;;;;;;2.10;1.20;;;8.50;99.90;;;;;;6148074;23;20183;-84
2023/12/25 05:07:33;;;;;;;1.23;1.07;;;8.60;99.90;;;;;;6150655;23;20214;-84
2023/12/25 05:10:03;;;;;;;1.83;1.00;;;8.60;99.90;;;;;;6161384;23;20436;-83
2023/12/25 05:12:38;;;;;;;2.43;1.10;;;8.60;99.90;;;;;;6162716;23;20183;-82
2023/12/25 05:15:08;;;;;;;4.53;1.20;;;8.60;99.90;;;;;;6147722;23;20171;-86
2023/12/25 05:17:37;;;;;;;3.37;1.63;;;8.60;99.90;;;;;;6148367;23;20670;-85
2023/12/25 05:20:10;;;;;;;2.47;1.40;;;8.70;99.90;;;;;;6139268;23;20192;-85
2023/12/25 05:22:38;;;;;;;2.70;1.50;;;8.60;99.90;;;;;;6145709;23;20163;-86
2023/12/25 05:25:09;;;;;;;2.30;1.67;;;8.50;99.90;;;;;;6139730;23;20194;-81
2023/12/25 05:27:40;;;;;;;3.80;1.83;;;8.70;99.90;;;;;;6149968;23;20187;-86
2023/12/25 05:30:10;;;;;;;1.60;1.50;;;8.70;99.90;;;;;;6152678;23;20255;-81
2023/12/25 05:32:39;;;;;;;2.63;1.60;;;8.70;99.90;;;;;;6151529;23;20601;-85
2023/12/25 05:35:09;;;;;;;2.23;1.30;;;8.90;99.90;;;;;;6151242;23;20324;-85
2023/12/25 05:37:38;;;;;;;1.97;1.27;;;9.00;99.90;;;;;;6153714;23;20251;-86
2023/12/25 05:40:12;;;;;;;1.73;1.40;;;9.10;99.90;;;;;;6151399;23;20175;-86
2023/12/25 05:42:43;;;;;;;2.13;1.43;;;9.10;99.90;;;;;;6152786;23;20160;-85
2023/12/25 05:45:12;;;;;;;3.63;1.57;;;9.10;99.90;;;;;;6146887;23;20212;-86
2023/12/25 05:47:41;;;;;;;3.20;1.80;;;9.10;99.90;;;;;;6152343;23;20188;-86
2023/12/25 05:50:13;;;;;;;1.50;1.40;;;9.10;99.90;;;;;;6154558;23;20194;-84
2023/12/25 05:52:41;;;;;;;2.80;1.60;;;9.10;99.90;;;;;;6151850;23;20167;-85
2023/12/25 05:55:11;;;;;;;2.03;1.57;;;9.00;99.90;;;;;;6152450;23;20480;-85
2023/12/25 05:57:41;;;;;;;2.23;1.50;;;9.30;99.90;;;;;;6154341;23;20164;-86
2023/12/25 06:00:12;;;;;;;2.23;1.47;;;9.00;99.90;;;;;;6153580;23;20167;-88
2023/12/25 06:02:41;;;;;;;1.70;1.33;;;9.00;99.90;;;;;;6153448;23;20208;-83
2023/12/25 06:05:10;;;;;;;5.87;1.40;;;8.90;99.90;;;;;;6154651;23;20920;-84
2023/12/25 06:07:38;;;;;;;4.17;1.50;;;8.80;99.90;;;;;;6160831;23;20179;-83
2023/12/25 06:10:08;;;;;;;1.40;1.30;;;8.70;99.90;;;;;;6156078;23;20164;-83
2023/12/25 06:12:44;;;;;;;1.70;1.23;;;8.60;99.90;;;;;;6158590;23;20172;-86
2023/12/25 06:15:13;;;;;;;1.63;1.50;;;8.50;99.90;;;;;;6154893;23;20495;-84
2023/12/25 06:17:51;;;;;;;2.03;1.90;;;8.40;99.90;;;;;;6155743;23;20735;-89
2023/12/25 06:20:23;;;;;;;3.43;2.20;;;8.50;99.90;;;;;;6161717;23;20167;-86
2023/12/25 06:22:52;;;;;;;5.87;2.40;;;8.40;99.90;;;;;;6158546;23;20744;-85
2023/12/25 06:25:25;;;;;;;2.70;2.50;;;8.50;99.90;;;;;;6162322;23;20228;-87
2023/12/25 06:27:55;;;;;;;3.03;2.37;;;8.50;99.90;;;;;;6160274;23;20183;-83
2023/12/25 06:30:29;;;;;;;2.77;2.57;;;8.50;99.90;;;;;;6162833;23;20271;-88
2023/12/25 06:32:58;;;;;;;4.00;1.90;;;8.60;99.90;;;;;;6156422;23;20250;-86
2023/12/25 06:35:30;;;;;;;3.27;2.30;;;8.60;99.90;;;;;;6157867;23;20570;-82
2023/12/25 06:38:02;;;;;;;2.00;1.80;;;8.60;99.90;;;;;;6155198;23;20164;-84
2023/12/25 06:40:31;;;;;;;2.10;1.80;;;8.70;99.90;;;;;;6145129;23;20780;-85
2023/12/25 06:43:01;;;;;;;3.20;2.13;;;8.60;99.90;;;;;;6156382;23;20173;-86
2023/12/25 06:45:31;;;;;;;4.43;2.03;;;8.60;99.90;;;;;;6161875;23;20269;-86
2023/12/25 06:48:00;;;;;;;2.87;1.90;;;8.60;99.90;;;;;;6162167;23;20416;-87
2023/12/25 06:50:29;;;;;;;2.40;1.70;;;8.60;99.90;;;;;;6158887;23;20164;-85
2023/12/25 06:53:00;;;;;;;2.57;1.60;;;8.50;99.90;;;;;;6156697;23;20163;-86
2023/12/25 06:55:29;;;;;;;2.57;1.70;;;8.50;99.90;;;;;;6123380;23;20612;-88
2023/12/25 06:57:58;;;;;;;2.27;1.77;;;8.50;99.90;;;;;;6162037;23;20468;-83
2023/12/25 07:00:28;;;;;;;4.70;1.90;;;8.50;99.90;;;;;;6132284;23;20179;-83
2023/12/25 07:02:57;;;;;;;2.80;1.90;;;8.50;99.90;;;;;;6155730;23;20658;-88
2023/12/25 07:05:26;;;;;;;4.37;2.30;;;8.60;99.90;;;;;;6162036;23;20223;-81
2023/12/25 07:07:55;;;;;;;2.43;1.87;;;8.70;99.90;;;;;;6170291;23;20242;-85
2023/12/25 07:10:24;;;;;;;2.40;1.57;;;8.70;99.90;;;;;;6171568;23;20168;-84
2023/12/25 07:12:55;;;;;;;4.03;1.60;;;8.60;99.90;;;;;;6178194;23;20171;-84
2023/12/25 07:15:23;;;;;;;2.53;1.80;;;8.60;99.90;;;;;;6174801;23;20645;-82
2023/12/25 07:17:54;;;;;;;1.60;1.50;;;8.60;99.90;;;;;;6158419;23;20179;-84
2023/12/25 07:20:23;;;;;;;1.60;1.20;;;8.70;99.90;;;;;;6153100;23;20182;-85
2023/12/25 07:22:55;;;;;;;2.70;1.60;;;8.70;99.90;;;;;;6153398;23;20452;-85
2023/12/25 07:25:26;;;;;;;1.97;1.70;;;8.60;99.90;;;;;;6154514;23;20226;-85
2023/12/25 07:27:57;;;;;;;3.23;1.50;;;8.60;99.90;;;;;;6155746;23;20183;-85
2023/12/25 07:30:27;;;;;;;3.87;2.20;;;8.70;99.90;;;;;;6155031;23;20187;-89
2023/12/25 07:32:59;;;;;;;2.87;1.50;;;8.90;99.90;;;;;;6110989;23;20273;-85
2023/12/25 07:35:28;;;;;;;4.00;1.60;;;8.70;99.90;;;;;;6151446;23;20206;-88
2023/12/25 07:37:57;;;;;;;3.97;1.30;;;8.80;99.90;;;;;;6155132;23;20171;-89
2023/12/25 07:40:25;;;;;;;2.03;1.30;;;8.70;99.90;;;;;;6153963;23;20175;-85
2023/12/25 07:42:54;;;;;;;2.60;1.37;;;8.80;99.90;;;;;;6154122;23;20172;-85
2023/12/25 07:45:23;;;;;;;4.07;1.40;;;8.90;99.90;;;;;;6154656;23;20163;-87
2023/12/25 07:47:52;;;;;;;4.30;1.57;;;9.00;99.90;;;;;;6155220;23;20215;-86
2023/12/25 07:50:23;;;;;;;2.40;1.60;;;9.00;99.90;;;;;;6155986;23;20168;-86
2023/12/25 07:52:55;;;;;;;2.17;1.37;;;9.10;99.90;;;;;;6154849;23;20191;-83
2023/12/25 07:55:24;;;;;;;5.33;2.00;;;9.10;99.90;;;;;;6153180;23;20230;-85
2023/12/25 07:57:53;;;;;;;2.07;1.27;;;9.20;99.90;;;;;;6153314;23;20861;-84
2023/12/25 08:00:22;;;;;;;3.97;1.67;;;9.20;99.90;;;;;;6155625;23;20163;-85
2023/12/25 08:02:51;;;;;;;2.63;1.40;;;9.20;99.90;;;;;;6169288;23;20174;-84
2023/12/25 08:05:21;;;;;;;4.53;1.63;;;9.20;99.90;;;;;;6169537;23;20652;-84
2023/12/25 08:07:51;;;;;;;4.03;1.73;;;9.20;99.90;;;;;;6158688;23;20179;-86
2023/12/25 08:10:19;;;;;;;4.87;1.70;;;9.30;99.90;;;;;;6151832;23;20646;-83
2023/12/25 08:12:48;;;;;;;4.60;1.60;;;9.40;99.90;;;;;;6151674;23;20164;-84
2023/12/25 08:15:17;;;;;;;3.90;1.40;;;9.60;99.90;;;;;;6143574;23;20241;-85
2023/12/25 08:17:46;;;;;;;3.10;1.43;;;9.50;99.90;;;;;;6117932;23;20176;-86
2023/12/25 08:20:16;;;;;;;3.77;1.60;;;9.50;99.90;;;;;;6128659;23;20607;-86
2023/12/25 08:22:47;;;;;;;3.60;1.40;;;9.60;99.90;;;;;;6153449;23;20229;-85
2023/12/25 08:25:18;;;;;;;3.80;1.70;;;9.60;99.90;;;;;;6151635;23;20511;-84
2023/12/25 08:27:48;;;;;;;3.07;1.80;;;9.60;99.90;;;;;;6153790;23;20171;-85
2023/12/25 08:30:17;;;;;;;4.33;1.70;;;9.60;99.90;;;;;;6159268;23;20183;-83
2023/12/25 08:32:47;;;;;;;3.30;1.83;;;9.60;99.90;;;;;;6133845;23;20183;-86
2023/12/25 08:35:16;;;;;;;3.53;1.50;;;9.60;99.90;;;;;;6172971;23;20184;-87
2023/12/25 08:37:48;;;;;;;2.33;1.60;;;9.70;99.90;;;;;;6176093;23;20171;-83
2023/12/25 08:40:20;;;;;;;2.47;1.53;;;9.70;99.90;;;;;;6173251;23;20151;-86
2023/12/25 08:42:49;;;;;;;3.60;2.10;;;9.60;99.90;;;;;;6137344;23;20179;-84
2023/12/25 08:45:19;;;;;;;5.00;1.80;;;9.60;99.90;;;;;;6172026;23;20265;-83
2023/12/25 08:47:51;;;;;;;4.67;1.20;;;9.60;99.90;;;;;;6136154;23;20174;-83
2023/12/25 08:50:20;;;;;;;3.63;1.93;;;9.60;99.90;;;;;;6173927;23;20234;-84
2023/12/25 08:52:54;;;;;;;3.03;1.90;;;9.50;99.90;;;;;;6172117;23;20168;-83
2023/12/25 08:55:32;;;;;;;3.40;1.70;;;9.60;99.90;;;;;;6171820;23;20143;-86
2023/12/25 08:58:01;;;;;;;3.00;1.60;;;9.60;99.90;;;;;;6167422;23;20175;-86
2023/12/25 09:00:30;;;;;;;3.17;1.50;;;9.60;99.90;;;;;;6169887;23;20284;-87
2023/12/25 09:02:59;;;;;;;3.77;1.70;;;9.70;99.90;;;;;;6170258;23;20244;-86
2023/12/25 09:05:34;;;;;;;3.67;1.97;;;9.80;99.90;;;;;;6164588;23;20167;-88
2023/12/25 09:08:06;;;;;;;4.43;1.97;;;9.60;99.90;;;;;;6116738;23;20577;-84
2023/12/25 09:10:35;;;;;;;2.37;1.70;;;9.60;99.90;;;;;;6153767;23;20214;-84
2023/12/25 09:13:05;;;;;;;5.03;2.00;;;9.70;99.90;;;;;;6153034;23;20649;-88
2023/12/25 09:15:36;;;;;;;3.97;1.50;;;9.90;99.90;;;;;;6151292;23;20178;-85
2023/12/25 09:18:06;;;;;;;3.93;1.70;;;9.90;99.90;;;;;;6151148;23;20160;-87
2023/12/25 09:20:38;;;;;;;2.10;1.70;;;10.10;99.90;;;;;;6119119;23;20638;-84
2023/12/25 09:23:09;;;;;;;1.60;1.50;;;10.10;99.90;;;;;;6120271;23;20260;-85
2023/12/25 09:25:37;;;;;;;4.77;1.53;;;10.10;99.90;;;;;;6162722;23;20167;-87
2023/12/25 09:28:08;;;;;;;6.23;1.83;;;10.20;99.90;;;;;;6155921;23;20163;-84
2023/12/25 09:30:38;;;;;;;3.47;1.63;;;10.30;99.90;;;;;;6153220;23;20245;-86
2023/12/25 09:33:08;;;;;;;3.90;1.67;;;10.40;99.90;;;;;;6153564;23;20583;-86
2023/12/25 09:35:37;;;;;;;3.60;1.60;;;10.40;99.90;;;;;;6153741;23;20175;-85
2023/12/25 09:38:08;;;;;;;1.87;1.50;;;10.40;99.90;;;;;;6152960;23;20196;-88
2023/12/25 09:40:37;;;;;;;2.93;1.67;;;10.40;99.90;;;;;;6156360;23;20164;-85
2023/12/25 09:43:07;;;;;;;1.90;1.43;;;10.50;99.90;;;;;;6153818;23;20242;-86
2023/12/25 09:45:48;;;;;;;4.83;1.90;;;10.60;99.90;;;;;;6152328;23;20546;-84
2023/12/25 09:48:19;;;;;;;1.93;1.73;;;10.60;99.90;;;;;;6155981;23;20313;-86
2023/12/25 09:50:48;;;;;;;2.07;1.67;;;10.70;99.90;;;;;;6165640;23;20236;-87
2023/12/25 09:53:20;;;;;;;4.03;2.00;;;10.70;99.90;;;;;;6146815;23;20525;-87
2023/12/25 09:55:55;;;;;;;4.23;1.70;;;10.70;99.90;;;;;;6157948;23;20173;-87
2023/12/25 09:58:25;;;;;;;3.93;1.80;;;10.80;99.90;;;;;;6157040;23;20177;-88
2023/12/25 10:00:55;;;;;;;3.63;2.00;;;10.80;99.90;;;;;;6147342;23;20175;-85
2023/12/25 10:03:31;;;;;;;2.40;1.53;;;10.90;99.90;;;;;;6155843;23;20247;-84
2023/12/25 10:06:02;;;;;;;6.97;1.80;;;10.90;99.90;;;;;;6156566;23;20164;-87
2023/12/25 10:08:33;;;;;;;3.13;1.80;;;10.90;99.90;;;;;;6154970;23;20172;-85
2023/12/25 10:11:04;;;;;;;3.33;1.83;;;10.90;99.90;;;;;;6155415;23;20183;-86
2023/12/25 10:13:33;;;;;;;3.10;1.83;;;10.90;99.90;;;;;;6157502;23;20179;-85
2023/12/25 10:16:03;;;;;;;6.07;1.80;;;10.90;99.90;;;;;;6154615;23;20403;-85
2023/12/25 10:18:40;;;;;;;3.80;2.50;;;10.90;99.90;;;;;;6153925;23;20167;-86
2023/12/25 10:21:15;;;;;;;4.37;1.97;;;10.90;99.90;;;;;;6120059;23;20183;-87
2023/12/25 10:23:47;;;;;;;4.77;1.97;;;10.90;99.90;;;;;;6158775;23;20241;-85
2023/12/25 10:26:28;;;;;;;3.87;2.00;;;10.90;99.90;;;;;;6156934;23;20223;-84
2023/12/25 10:29:08;;;;;;;3.70;1.90;;;10.80;99.90;;;;;;6156749;23;20633;-86
2023/12/25 10:31:39;;;;;;;4.90;2.10;;;10.80;99.90;;;;;;6164449;23;20234;-87
2023/12/25 10:34:09;;;;;;;5.97;1.97;;;10.70;99.90;;;;;;6169833;23;20168;-85
2023/12/25 10:36:40;;;;;;;4.50;2.10;;;10.60;99.90;;;;;;6167079;23;20625;-85
2023/12/25 10:39:11;;;;;;;2.07;1.87;;;10.60;99.90;;;;;;6170221;23;20159;-85
2023/12/25 10:41:42;;;;;;;3.20;1.90;;;10.50;99.90;;;;;;6169834;23;20164;-85
2023/12/25 10:44:12;;;;;;;3.40;2.00;;;10.50;99.90;;;;;;6174109;23;20315;-86
2023/12/25 10:46:41;;;;;;;3.57;2.17;;;10.50;99.90;;;;;;6166119;23;20641;-88
2023/12/25 10:49:14;;;;;;;3.93;2.07;;;10.50;99.90;;;;;;6158267;23;20508;-84
2023/12/25 10:51:45;;;;;;;3.93;1.97;;;10.60;99.90;;;;;;6138353;23;20210;-86
2023/12/25 10:54:25;;;;;;;2.87;2.10;;;10.60;99.90;;;;;;6151731;23;20164;-87
2023/12/25 10:56:54;;;;;;;3.63;2.17;;;10.70;99.90;;;;;;6155961;23;20174;-86
2023/12/25 10:59:28;;;;;;;5.80;2.20;;;10.70;99.90;;;;;;6165755;23;20171;-86
2023/12/25 11:02:01;;;;;;;4.73;2.20;;;10.70;99.90;;;;;;6164662;23;20160;-86
2023/12/25 11:04:31;;;;;;;1.93;1.80;;;10.80;99.90;;;;;;6162980;23;20751;-84
2023/12/25 11:07:03;;;;;;;5.37;2.40;;;11.00;99.90;;;;;;6160022;23;20258;-86
2023/12/25 11:09:35;;;;;;;4.93;2.00;;;11.10;99.90;;;;;;6151652;23;20257;-84
2023/12/25 11:12:07;;;;;;;3.07;1.87;;;11.20;99.90;;;;;;6172277;23;20268;-85
2023/12/25 11:14:38;;;;;;;2.97;1.70;;;11.30;99.90;;;;;;6170960;23;20158;-85
2023/12/25 11:17:08;;;;;;;4.77;1.90;;;11.20;99.90;;;;;;6173404;23;20232;-88
2023/12/25 11:19:40;;;;;;;3.37;1.80;;;11.00;99.90;;;;;;6170733;23;20147;-87
2023/12/25 11:22:27;;;;;;;5.17;1.70;;;11.00;99.90;;;;;;6175548;23;20222;-87
2023/12/25 11:25:04;;;;;;;3.40;1.73;;;11.00;99.90;;;;;;6176444;23;20183;-86
2023/12/25 11:27:36;;;;;;;3.07;2.13;;;11.00;99.90;;;;;;6173333;23;20195;-84
2023/12/25 11:30:10;;;;;;;3.47;2.00;;;10.90;99.90;;;;;;6179259;23;20183;-86
2023/12/25 11:32:40;;;;;;;2.90;2.20;;;10.90;99.90;;;;;;6174239;23;20156;-85
2023/12/25 11:35:10;;;;;;;2.87;2.17;;;10.90;99.90;;;;;;6177631;23;20184;-85
2023/12/25 11:37:41;;;;;;;2.87;2.10;;;11.00;99.90;;;;;;6175016;23;20290;-89
2023/12/25 11:40:20;;;;;;;4.10;2.20;;;11.20;99.90;;;;;;6177398;23;20170;-85
2023/12/25 11:42:49;;;;;;;4.93;2.43;;;11.30;99.90;;;;;;6178112;23;20175;-85
2023/12/25 11:45:27;;;;;;;4.33;1.80;;;11.40;99.90;;;;;;6173269;23;20183;-83
2023/12/25 11:48:05;;;;;;;2.10;1.90;;;11.40;99.90;;;;;;6142958;23;20238;-85
2023/12/25 11:50:37;;;;;;;3.77;1.80;;;11.40;99.90;;;;;;6168955;23;20258;-86
2023/12/25 11:53:06;;;;;;;3.10;1.87;;;11.40;99.60;;;;;;6157857;23;20198;-85
2023/12/25 11:55:38;;;;;;;3.83;2.03;;;11.50;98.20;;;;;;6160242;23;20202;-85
2023/12/25 11:58:07;;;;;;;2.90;1.80;;;11.50;99.90;;;;;;6121309;23;20321;-84
2023/12/25 12:00:36;;;;;;;1.13;0.90;;;11.50;96.30;;;;;;6162193;23;20274;-86
2023/12/25 12:03:07;;;;;;;1.67;1.23;;;10.80;95.60;;;;;;6155244;23;20230;-84
2023/12/25 12:05:41;;;;;;;2.03;0.90;;;9.10;99.90;;;;;;6156581;23;20182;-83
2023/12/25 12:08:10;;;;;;;1.10;1.00;;;8.10;99.90;;;;;;6153579;23;20254;-84
2023/12/25 12:10:42;;;;;;;2.43;1.03;;;7.60;99.90;;;;;;6153019;23;20183;-85
2023/12/25 12:13:12;;;;;;;1.63;1.20;;;7.40;99.90;;;;;;6157431;23;20690;-85
2023/12/25 12:15:42;;;;;;;1.43;1.10;;;7.30;99.90;;;;;;6141509;23;20666;-83
2023/12/25 12:18:10;;;;;;;1.27;1.10;;;7.20;99.90;;;;;;6163744;23;20399;-82
2023/12/25 12:20:40;;;;;;;2.37;1.43;;;7.10;99.90;;;;;;6161391;23;20159;-84
2023/12/25 12:23:13;;;;;;;4.30;1.10;;;7.10;99.90;;;;;;6155754;23;20168;-83
2023/12/25 12:25:44;;;;;;;2.77;1.20;;;7.10;99.90;;;;;;6152974;23;20186;-85
2023/12/25 12:28:15;;;;;;;3.57;1.40;;;7.10;99.90;;;;;;6170281;23;20159;-85
2023/12/25 12:30:47;;;;;;;6.40;1.70;;;7.10;99.90;;;;;;6164903;23;20204;-87
2023/12/25 12:33:17;;;;;;;3.33;1.60;;;7.10;99.90;;;;;;6173131;23;20390;-84
2023/12/25 12:35:48;;;;;;;3.37;1.80;;;7.10;99.90;;;;;;6167568;23;20278;-84
2023/12/25 12:38:20;;;;;;;3.77;2.00;;;7.10;99.90;;;;;;6151571;23;20187;-85
2023/12/25 12:40:52;;;;;;;3.03;1.40;;;7.10;99.90;;;;;;6153996;23;20163;-85
2023/12/25 12:43:21;;;;;;;3.93;1.70;;;7.10;99.90;;;;;;6167158;23;20394;-87
2023/12/25 12:45:50;;;;;;;3.33;1.50;;;7.10;99.90;;;;;;6155290;23;20187;-86
2023/12/25 12:48:19;;;;;;;2.70;1.83;;;7.10;99.90;;;;;;6153520;23;20156;-87
2023/12/25 12:50:48;;;;;;;1.90;1.30;;;7.30;99.90;;;;;;6151906;23;20267;-87
2023/12/25 12:53:17;;;;;;;2.37;1.47;;;7.10;99.90;;;;;;6154826;23;20183;-84
2023/12/25 12:55:46;;;;;;;2.40;1.80;;;7.10;99.90;;;;;;6151131;23;20179;-86
2023/12/25 12:58:16;;;;;;;3.53;1.50;;;7.20;99.90;;;;;;6151822;23;20192;-87
2023/12/25 13:00:46;;;;;;;3.47;2.00;;;7.10;99.90;;;;;;6140422;23;20176;-86
2023/12/25 13:03:17;;;;;;;4.40;1.87;;;7.10;99.90;;;;;;6151434;23;20253;-87
2023/12/25 13:05:47;;;;;;;2.37;1.50;;;7.10;99.90;;;;;;6153397;23;20230;-85
2023/12/25 13:08:16;;;;;;;2.20;1.60;;;7.10;99.90;;;;;;6155300;23;20167;-86
2023/12/25 13:10:45;;;;;;;5.07;1.80;;;7.10;99.90;;;;;;6149733;23;20210;-85